sensor_id;sensor_type;location;lat;lon;timestamp;pressure;altitude;pressure_sealevel;temperature;humidity
17254;BME280;32542;52.832;13.816;2023-09-07T00:02:40;102399.28;;;24.21;53.30
17254;BME280;32542;52.832;13.816;2023-09-07T00:05:43;102397.47;;;24.21;53.38
17254;BME280;32542;52.832;13.816;2023-09-07T00:08:46;102390.34;;;24.20;53.23
17254;BME280;32542;52.832;13.816;2023-09-07T00:11:49;102388.63;;;24.19;53.21
17254;BME280;32542;52.832;13.816;2023-09-07T00:14:53;102393.09;;;24.19;53.18
17254;BME280;32542;52.832;13.816;2023-09-07T00:17:56;102393.09;;;24.19;53.44
17254;BME280;32542;52.832;13.816;2023-09-07T00:20:59;102396.69;;;24.18;53.30
17254;BME280;32542;52.832;13.816;2023-09-07T00:24:03;102397.63;;;24.17;53.35
17254;BME280;32542;52.832;13.816;2023-09-07T00:27:07;102398.56;;;24.16;53.03
17254;BME280;32542;52.832;13.816;2023-09-07T00:30:11;102396.81;;;24.15;53.09
17254;BME280;32542;52.832;13.816;2023-09-07T00:33:14;102401.28;;;24.14;53.01
17254;BME280;32542;52.832;13.816;2023-09-07T00:36:17;102402.19;;;24.15;53.19
17254;BME280;32542;52.832;13.816;2023-09-07T00:39:20;102400.41;;;24.14;53.07
17254;BME280;32542;52.832;13.816;2023-09-07T00:42:23;102395.06;;;24.14;52.90
17254;BME280;32542;52.832;13.816;2023-09-07T00:45:27;102400.41;;;24.14;53.00
17254;BME280;32542;52.832;13.816;2023-09-07T00:48:31;102391.53;;;24.13;52.96
17254;BME280;32542;52.832;13.816;2023-09-07T00:51:35;102397.78;;;24.12;53.19
17254;BME280;32542;52.832;13.816;2023-09-07T00:54:38;102391.56;;;24.12;52.84
17254;BME280;32542;52.832;13.816;2023-09-07T00:57:42;102396.06;;;24.11;53.13
17254;BME280;32542;52.832;13.816;2023-09-07T01:00:46;102390.75;;;24.10;52.97
17254;BME280;32542;52.832;13.816;2023-09-07T01:03:49;102395.28;;;24.08;53.06
17254;BME280;32542;52.832;13.816;2023-09-07T01:06:56;102391.69;;;24.09;53.26
17254;BME280;32542;52.832;13.816;2023-09-07T01:10:06;102392.59;;;24.08;53.03
17254;BME280;32542;52.832;13.816;2023-09-07T01:13:10;102397.03;;;24.09;53.11
17254;BME280;32542;52.832;13.816;2023-09-07T01:16:15;102398.84;;;24.08;52.81
17254;BME280;32542;52.832;13.816;2023-09-07T01:19:18;102395.28;;;24.08;53.14
17254;BME280;32542;52.832;13.816;2023-09-07T01:22:23;102389.09;;;24.06;53.10
17254;BME280;32542;52.832;13.816;2023-09-07T01:25:26;102393.56;;;24.07;53.17
17254;BME280;32542;52.832;13.816;2023-09-07T01:28:30;102393.56;;;24.07;53.13
17254;BME280;32542;52.832;13.816;2023-09-07T01:31:35;102391.78;;;24.06;53.13
17254;BME280;32542;52.832;13.816;2023-09-07T01:34:40;102387.38;;;24.05;53.20
17254;BME280;32542;52.832;13.816;2023-09-07T01:37:44;102383.81;;;24.04;52.97
17254;BME280;32542;52.832;13.816;2023-09-07T01:40:47;102394.53;;;24.04;52.96
17254;BME280;32542;52.832;13.816;2023-09-07T01:43:50;102388.25;;;24.03;52.85
17254;BME280;32542;52.832;13.816;2023-09-07T01:46:54;102381.19;;;24.02;53.28
17254;BME280;32542;52.832;13.816;2023-09-07T01:49:57;102390.94;;;24.03;53.10
17254;BME280;32542;52.832;13.816;2023-09-07T01:53:02;102384.75;;;24.01;52.75
17254;BME280;32542;52.832;13.816;2023-09-07T01:56:06;102383.84;;;24.02;52.91
17254;BME280;32542;52.832;13.816;2023-09-07T01:59:09;102390.13;;;24.01;53.15
17254;BME280;32542;52.832;13.816;2023-09-07T02:02:12;102385.66;;;24.02;53.10
17254;BME280;32542;52.832;13.816;2023-09-07T02:05:15;102383.88;;;24.01;52.80
17254;BME280;32542;52.832;13.816;2023-09-07T02:08:20;102382.16;;;24.00;52.64
17254;BME280;32542;52.832;13.816;2023-09-07T02:11:23;102392.84;;;24.00;52.68
17254;BME280;32542;52.832;13.816;2023-09-07T02:14:26;102383.94;;;23.99;52.79
17254;BME280;32542;52.832;13.816;2023-09-07T02:17:29;102388.41;;;23.99;53.00
17254;BME280;32542;52.832;13.816;2023-09-07T02:20:32;102393.84;;;23.97;52.91
17254;BME280;32542;52.832;13.816;2023-09-07T02:23:36;102393.84;;;23.97;52.66
17254;BME280;32542;52.832;13.816;2023-09-07T02:26:39;102390.28;;;23.97;52.80
17254;BME280;32542;52.832;13.816;2023-09-07T02:29:46;102395.69;;;23.95;52.88
17254;BME280;32542;52.832;13.816;2023-09-07T02:32:49;102392.06;;;23.96;52.91
17254;BME280;32542;52.832;13.816;2023-09-07T02:35:52;102388.53;;;23.96;52.86
17254;BME280;32542;52.832;13.816;2023-09-07T02:38:56;102391.22;;;23.96;52.97
17254;BME280;32542;52.832;13.816;2023-09-07T02:41:59;102395.69;;;23.95;52.63
17254;BME280;32542;52.832;13.816;2023-09-07T02:45:02;102391.22;;;23.96;52.55
17254;BME280;32542;52.832;13.816;2023-09-07T02:48:06;102388.56;;;23.94;52.72
17254;BME280;32542;52.832;13.816;2023-09-07T02:51:11;102399.28;;;23.94;52.78
17254;BME280;32542;52.832;13.816;2023-09-07T02:54:16;102394.00;;;23.93;52.77
17254;BME280;32542;52.832;13.816;2023-09-07T02:57:19;102396.66;;;23.93;52.75
17254;BME280;32542;52.832;13.816;2023-09-07T03:00:22;102399.41;;;23.91;52.78
17254;BME280;32542;52.832;13.816;2023-09-07T03:03:25;102390.50;;;23.91;52.70
17254;BME280;32542;52.832;13.816;2023-09-07T03:06:29;102398.53;;;23.91;52.74
17254;BME280;32542;52.832;13.816;2023-09-07T03:09:33;102394.97;;;23.90;52.76
17254;BME280;32542;52.832;13.816;2023-09-07T03:12:37;102392.28;;;23.90;52.73
17254;BME280;32542;52.832;13.816;2023-09-07T03:15:40;102391.44;;;23.90;52.81
17254;BME280;32542;52.832;13.816;2023-09-07T03:18:46;102386.94;;;23.90;52.62
17254;BME280;32542;52.832;13.816;2023-09-07T03:21:49;102390.56;;;23.89;52.58
17254;BME280;32542;52.832;13.816;2023-09-07T03:24:54;102383.44;;;23.88;52.61
17254;BME280;32542;52.832;13.816;2023-09-07T03:27:56;102383.44;;;23.88;52.63
17254;BME280;32542;52.832;13.816;2023-09-07T03:31:00;102394.16;;;23.88;52.49
17254;BME280;32542;52.832;13.816;2023-09-07T03:34:03;102387.06;;;23.87;52.47
17254;BME280;32542;52.832;13.816;2023-09-07T03:37:07;102392.41;;;23.87;52.89
17254;BME280;32542;52.832;13.816;2023-09-07T03:40:15;102397.78;;;23.87;52.58
17254;BME280;32542;52.832;13.816;2023-09-07T03:43:18;102394.28;;;23.85;52.47
17254;BME280;32542;52.832;13.816;2023-09-07T03:46:21;102394.28;;;23.85;52.70
17254;BME280;32542;52.832;13.816;2023-09-07T03:49:24;102401.41;;;23.85;52.43
17254;BME280;32542;52.832;13.816;2023-09-07T03:52:27;102397.88;;;23.84;52.72
17254;BME280;32542;52.832;13.816;2023-09-07T03:55:41;102405.81;;;23.86;52.62
17254;BME280;32542;52.832;13.816;2023-09-07T03:58:45;102400.47;;;23.86;52.69
17254;BME280;32542;52.832;13.816;2023-09-07T04:01:49;102404.97;;;23.85;52.59
17254;BME280;32542;52.832;13.816;2023-09-07T04:04:53;102396.97;;;23.84;52.73
17254;BME280;32542;52.832;13.816;2023-09-07T04:07:57;102408.56;;;23.84;52.55
17254;BME280;32542;52.832;13.816;2023-09-07T04:11:05;102411.31;;;23.83;52.43
17254;BME280;32542;52.832;13.816;2023-09-07T04:14:09;102404.19;;;23.82;52.70
17254;BME280;32542;52.832;13.816;2023-09-07T04:17:12;102403.34;;;23.81;52.76
17254;BME280;32542;52.832;13.816;2023-09-07T04:20:15;102410.47;;;23.81;52.63
17254;BME280;32542;52.832;13.816;2023-09-07T04:23:18;102418.50;;;23.81;52.35
17254;BME280;32542;52.832;13.816;2023-09-07T04:26:23;102414.94;;;23.80;52.63
17254;BME280;32542;52.832;13.816;2023-09-07T04:29:25;102421.25;;;23.79;52.31
17254;BME280;32542;52.832;13.816;2023-09-07T04:32:28;102420.38;;;23.79;52.17
17254;BME280;32542;52.832;13.816;2023-09-07T04:35:32;102418.56;;;23.79;52.26
17254;BME280;32542;52.832;13.816;2023-09-07T04:38:35;102419.47;;;23.78;52.49
17254;BME280;32542;52.832;13.816;2023-09-07T04:41:40;102422.16;;;23.78;52.30
17254;BME280;32542;52.832;13.816;2023-09-07T04:44:43;102419.47;;;23.78;52.46
17254;BME280;32542;52.832;13.816;2023-09-07T04:47:45;102418.59;;;23.78;52.56
17254;BME280;32542;52.832;13.816;2023-09-07T04:50:48;102421.34;;;23.76;52.70
17254;BME280;32542;52.832;13.816;2023-09-07T04:53:52;102426.69;;;23.76;52.75
17254;BME280;32542;52.832;13.816;2023-09-07T04:56:57;102427.56;;;23.77;52.67
17254;BME280;32542;52.832;13.816;2023-09-07T05:00:00;102432.94;;;23.75;52.44
17254;BME280;32542;52.832;13.816;2023-09-07T05:03:05;102436.50;;;23.76;52.29
17254;BME280;32542;52.832;13.816;2023-09-07T05:06:08;102435.63;;;23.75;52.72
17254;BME280;32542;52.832;13.816;2023-09-07T05:09:11;102444.59;;;23.74;52.58
17254;BME280;32542;52.832;13.816;2023-09-07T05:12:15;102431.22;;;23.74;52.48
17254;BME280;32542;52.832;13.816;2023-09-07T05:15:20;102427.59;;;23.75;52.36
17254;BME280;32542;52.832;13.816;2023-09-07T05:18:23;102427.59;;;23.75;52.25
17254;BME280;32542;52.832;13.816;2023-09-07T05:21:26;102433.91;;;23.74;52.37
17254;BME280;32542;52.832;13.816;2023-09-07T05:24:29;102439.25;;;23.74;52.68
17254;BME280;32542;52.832;13.816;2023-09-07T05:27:35;102437.47;;;23.73;52.66
17254;BME280;32542;52.832;13.816;2023-09-07T05:30:38;102439.31;;;23.73;52.50
17254;BME280;32542;52.832;13.816;2023-09-07T05:33:42;102436.63;;;23.73;52.47
17254;BME280;32542;52.832;13.816;2023-09-07T05:36:45;102439.31;;;23.73;52.61
17254;BME280;32542;52.832;13.816;2023-09-07T05:39:48;102446.44;;;23.72;52.48
17254;BME280;32542;52.832;13.816;2023-09-07T05:42:52;102441.97;;;23.73;52.46
17254;BME280;32542;52.832;13.816;2023-09-07T05:45:55;102441.97;;;23.73;52.69
17254;BME280;32542;52.832;13.816;2023-09-07T05:48:58;102450.03;;;23.71;52.72
17254;BME280;32542;52.832;13.816;2023-09-07T05:52:02;102442.94;;;23.70;52.31
17254;BME280;32542;52.832;13.816;2023-09-07T05:55:07;102450.97;;;23.70;52.48
17254;BME280;32542;52.832;13.816;2023-09-07T05:58:12;102448.31;;;23.70;52.45
17254;BME280;32542;52.832;13.816;2023-09-07T06:01:18;102446.53;;;23.69;52.39
17254;BME280;32542;52.832;13.816;2023-09-07T06:04:21;102450.09;;;23.70;52.54
17254;BME280;32542;52.832;13.816;2023-09-07T06:07:24;102451.88;;;23.69;52.37
17254;BME280;32542;52.832;13.816;2023-09-07T06:10:27;102448.38;;;23.67;52.55
17254;BME280;32542;52.832;13.816;2023-09-07T06:13:32;102456.38;;;23.69;52.62
17254;BME280;32542;52.832;13.816;2023-09-07T06:16:35;102453.75;;;23.67;52.62
17254;BME280;32542;52.832;13.816;2023-09-07T06:19:38;102457.34;;;23.66;52.49
17254;BME280;32542;52.832;13.816;2023-09-07T06:22:42;102461.75;;;23.67;52.64
17254;BME280;32542;52.832;13.816;2023-09-07T06:25:47;102457.34;;;23.66;52.73
17254;BME280;32542;52.832;13.816;2023-09-07T06:28:51;102459.97;;;23.68;52.85
17254;BME280;32542;52.832;13.816;2023-09-07T06:31:54;102460.84;;;23.68;53.07
17254;BME280;32542;52.832;13.816;2023-09-07T06:34:58;102462.66;;;23.68;52.70
17254;BME280;32542;52.832;13.816;2023-09-07T06:38:01;102461.75;;;23.69;53.00
17254;BME280;32542;52.832;13.816;2023-09-07T06:41:04;102471.56;;;23.68;52.91
17254;BME280;32542;52.832;13.816;2023-09-07T06:44:10;102471.56;;;23.68;52.85
17254;BME280;32542;52.832;13.816;2023-09-07T06:47:14;102471.59;;;23.67;53.04
17254;BME280;32542;52.832;13.816;2023-09-07T06:50:17;102471.66;;;23.65;53.19
17254;BME280;32542;52.832;13.816;2023-09-07T06:53:20;102468.16;;;23.63;53.08
17254;BME280;32542;52.832;13.816;2023-09-07T06:56:23;102474.38;;;23.64;53.34
17254;BME280;32542;52.832;13.816;2023-09-07T06:59:29;102471.69;;;23.64;53.20
17254;BME280;32542;52.832;13.816;2023-09-07T07:02:32;102468.16;;;23.63;53.32
17254;BME280;32542;52.832;13.816;2023-09-07T07:05:36;102469.03;;;23.64;53.25
17254;BME280;32542;52.832;13.816;2023-09-07T07:08:39;102461.81;;;23.66;53.74
17254;BME280;32542;52.832;13.816;2023-09-07T07:11:42;102461.75;;;23.69;54.22
17254;BME280;32542;52.832;13.816;2023-09-07T07:14:46;102463.41;;;23.71;54.62
17254;BME280;32542;52.832;13.816;2023-09-07T07:17:50;102467.84;;;23.72;54.15
17254;BME280;32542;52.832;13.816;2023-09-07T07:20:54;102459.75;;;23.74;54.51
17254;BME280;32542;52.832;13.816;2023-09-07T07:23:56;102457.91;;;23.76;54.58
17254;BME280;32542;52.832;13.816;2023-09-07T07:26:59;102464.09;;;23.78;54.13
17254;BME280;32542;52.832;13.816;2023-09-07T07:30:08;102464.06;;;23.79;54.00
17254;BME280;32542;52.832;13.816;2023-09-07T07:33:13;102465.78;;;23.80;53.73
17254;BME280;32542;52.832;13.816;2023-09-07T07:36:18;102474.63;;;23.82;53.54
17254;BME280;32542;52.832;13.816;2023-09-07T07:39:21;102472.78;;;23.84;53.79
17254;BME280;32542;52.832;13.816;2023-09-07T07:42:24;102470.03;;;23.86;53.10
17254;BME280;32542;52.832;13.816;2023-09-07T07:45:28;102481.63;;;23.86;52.89
17254;BME280;32542;52.832;13.816;2023-09-07T07:48:31;102484.25;;;23.88;52.81
17254;BME280;32542;52.832;13.816;2023-09-07T07:51:37;102490.47;;;23.88;53.02
17254;BME280;32542;52.832;13.816;2023-09-07T07:54:40;102476.19;;;23.89;52.94
17254;BME280;32542;52.832;13.816;2023-09-07T07:57:44;102476.19;;;23.89;52.66
17254;BME280;32542;52.832;13.816;2023-09-07T08:00:48;102477.09;;;23.88;52.81
17254;BME280;32542;52.832;13.816;2023-09-07T08:03:56;102474.44;;;23.88;52.80
17254;BME280;32542;52.832;13.816;2023-09-07T08:07:05;102477.06;;;23.90;53.19
17254;BME280;32542;52.832;13.816;2023-09-07T08:10:10;102476.06;;;23.92;53.26
17254;BME280;32542;52.832;13.816;2023-09-07T08:13:13;102480.56;;;23.92;53.10
17254;BME280;32542;52.832;13.816;2023-09-07T08:16:18;102476.06;;;23.92;52.82
17254;BME280;32542;52.832;13.816;2023-09-07T08:19:21;102476.94;;;23.93;52.91
17254;BME280;32542;52.832;13.816;2023-09-07T08:22:25;102471.50;;;23.96;52.66
17254;BME280;32542;52.832;13.816;2023-09-07T08:25:29;102467.84;;;23.98;52.70
17254;BME280;32542;52.832;13.816;2023-09-07T08:28:32;102473.16;;;24.00;52.57
17254;BME280;32542;52.832;13.816;2023-09-07T08:31:37;102471.34;;;24.00;52.54
17254;BME280;32542;52.832;13.816;2023-09-07T08:34:40;102468.69;;;24.00;52.29
17254;BME280;32542;52.832;13.816;2023-09-07T08:37:44;102467.72;;;24.01;52.08
17254;BME280;32542;52.832;13.816;2023-09-07T08:40:47;102469.50;;;24.02;52.09
17254;BME280;32542;52.832;13.816;2023-09-07T08:43:52;102465.00;;;24.05;51.85
17254;BME280;32542;52.832;13.816;2023-09-07T08:46:59;102472.97;;;24.06;51.87
17254;BME280;32542;52.832;13.816;2023-09-07T08:50:03;102464.88;;;24.08;51.62
17254;BME280;32542;52.832;13.816;2023-09-07T08:53:07;102473.78;;;24.08;51.50
17254;BME280;32542;52.832;13.816;2023-09-07T08:56:11;102466.63;;;24.09;51.25
17254;BME280;32542;52.832;13.816;2023-09-07T08:59:14;102471.88;;;24.12;51.26
17254;BME280;32542;52.832;13.816;2023-09-07T09:02:18;102473.63;;;24.13;51.16
17254;BME280;32542;52.832;13.816;2023-09-07T09:05:23;102468.22;;;24.14;51.02
17254;BME280;32542;52.832;13.816;2023-09-07T09:08:26;102464.50;;;24.18;51.31
17254;BME280;32542;52.832;13.816;2023-09-07T09:11:30;102467.16;;;24.20;51.35
17254;BME280;32542;52.832;13.816;2023-09-07T09:14:32;102459.06;;;24.21;51.34
17254;BME280;32542;52.832;13.816;2023-09-07T09:17:37;102464.34;;;24.23;51.08
17254;BME280;32542;52.832;13.816;2023-09-07T09:20:39;102466.09;;;24.24;50.86
17254;BME280;32542;52.832;13.816;2023-09-07T09:23:43;102465.97;;;24.27;50.91
17254;BME280;32542;52.832;13.816;2023-09-07T09:26:46;102459.59;;;24.31;51.02
17254;BME280;32542;52.832;13.816;2023-09-07T09:29:50;102460.41;;;24.33;50.73
17254;BME280;32542;52.832;13.816;2023-09-07T09:32:54;102461.22;;;24.35;50.93
17254;BME280;32542;52.832;13.816;2023-09-07T09:35:57;102459.38;;;24.37;50.90
17254;BME280;32542;52.832;13.816;2023-09-07T09:39:00;102457.69;;;24.34;50.77
17254;BME280;32542;52.832;13.816;2023-09-07T09:42:04;102451.31;;;24.37;50.75
17254;BME280;32542;52.832;13.816;2023-09-07T09:45:09;102453.91;;;24.40;50.86
17254;BME280;32542;52.832;13.816;2023-09-07T09:48:14;102443.13;;;24.41;50.64
17254;BME280;32542;52.832;13.816;2023-09-07T09:51:18;102437.78;;;24.41;50.52
17254;BME280;32542;52.832;13.816;2023-09-07T09:54:22;102433.19;;;24.45;50.17
17254;BME280;32542;52.832;13.816;2023-09-07T09:57:26;102442.06;;;24.47;49.96
17254;BME280;32542;52.832;13.816;2023-09-07T10:00:32;102427.63;;;24.51;49.84
17254;BME280;32542;52.832;13.816;2023-09-07T10:03:44;102431.09;;;24.53;49.43
17254;BME280;32542;52.832;13.816;2023-09-07T10:06:54;102422.13;;;24.54;49.19
17254;BME280;32542;52.832;13.816;2023-09-07T10:09:58;102423.88;;;24.55;49.00
17254;BME280;32542;52.832;13.816;2023-09-07T10:13:01;102424.81;;;24.54;49.01
17254;BME280;32542;52.832;13.816;2023-09-07T10:16:05;102417.66;;;24.54;48.45
17254;BME280;32542;52.832;13.816;2023-09-07T10:19:19;102424.69;;;24.57;48.04
17254;BME280;32542;52.832;13.816;2023-09-07T10:22:22;102419.34;;;24.57;47.75
17254;BME280;32542;52.832;13.816;2023-09-07T10:25:30;102414.78;;;24.59;47.84
17254;BME280;32542;52.832;13.816;2023-09-07T10:28:33;102412.13;;;24.59;47.73
17254;BME280;32542;52.832;13.816;2023-09-07T10:31:35;102412.06;;;24.60;47.79
17254;BME280;32542;52.832;13.816;2023-09-07T10:34:55;102420.06;;;24.62;47.93
17254;BME280;32542;52.832;13.816;2023-09-07T10:38:01;102416.59;;;24.58;47.74
17254;BME280;32542;52.832;13.816;2023-09-07T10:41:04;102416.59;;;24.58;47.39
17254;BME280;32542;52.832;13.816;2023-09-07T10:44:08;102412.13;;;24.59;47.08
17254;BME280;32542;52.832;13.816;2023-09-07T10:47:12;102407.56;;;24.61;46.84
17254;BME280;32542;52.832;13.816;2023-09-07T10:50:16;102416.44;;;24.63;46.67
17254;BME280;32542;52.832;13.816;2023-09-07T10:53:27;102403.84;;;24.65;46.04
17254;BME280;32542;52.832;13.816;2023-09-07T10:56:30;102417.16;;;24.66;46.01
17254;BME280;32542;52.832;13.816;2023-09-07T10:59:34;102409.09;;;24.68;45.98
17254;BME280;32542;52.832;13.816;2023-09-07T11:02:37;102411.78;;;24.68;45.76
17254;BME280;32542;52.832;13.816;2023-09-07T11:05:41;102415.34;;;24.68;45.78
17254;BME280;32542;52.832;13.816;2023-09-07T11:08:44;102406.41;;;24.68;45.84
17254;BME280;32542;52.832;13.816;2023-09-07T11:11:47;102408.16;;;24.69;45.96
17254;BME280;32542;52.832;13.816;2023-09-07T11:14:50;102398.25;;;24.71;46.07
17254;BME280;32542;52.832;13.816;2023-09-07T11:17:53;102395.53;;;24.72;46.19
17254;BME280;32542;52.832;13.816;2023-09-07T11:20:58;102394.56;;;24.75;45.88
17254;BME280;32542;52.832;13.816;2023-09-07T11:24:04;102391.84;;;24.76;45.72
17254;BME280;32542;52.832;13.816;2023-09-07T11:27:08;102394.50;;;24.76;45.76
17254;BME280;32542;52.832;13.816;2023-09-07T11:30:11;102389.09;;;24.78;45.73
17254;BME280;32542;52.832;13.816;2023-09-07T11:33:15;102384.53;;;24.80;45.95
17254;BME280;32542;52.832;13.816;2023-09-07T11:36:20;102382.75;;;24.81;45.51
17254;BME280;32542;52.832;13.816;2023-09-07T11:39:26;102380.94;;;24.81;45.33
17254;BME280;32542;52.832;13.816;2023-09-07T11:42:29;102374.63;;;24.82;45.32
17254;BME280;32542;52.832;13.816;2023-09-07T11:45:31;102380.00;;;24.82;45.17
17254;BME280;32542;52.832;13.816;2023-09-07T11:48:34;102382.66;;;24.82;44.90
17254;BME280;32542;52.832;13.816;2023-09-07T11:51:39;102379.06;;;24.83;44.73
17254;BME280;32542;52.832;13.816;2023-09-07T11:54:41;102368.34;;;24.83;44.40
17254;BME280;32542;52.832;13.816;2023-09-07T11:57:44;102376.38;;;24.83;44.47
17254;BME280;32542;52.832;13.816;2023-09-07T12:00:47;102371.84;;;24.85;44.45
17254;BME280;32542;52.832;13.816;2023-09-07T12:03:50;102371.78;;;24.87;44.39
17254;BME280;32542;52.832;13.816;2023-09-07T12:06:54;102371.69;;;24.88;44.42
17254;BME280;32542;52.832;13.816;2023-09-07T12:09:57;102365.41;;;24.89;44.07
17254;BME280;32542;52.832;13.816;2023-09-07T12:13:00;102360.97;;;24.88;44.02
17254;BME280;32542;52.832;13.816;2023-09-07T12:16:03;102361.78;;;24.90;44.01
17254;BME280;32542;52.832;13.816;2023-09-07T12:19:06;102365.34;;;24.91;44.24
17254;BME280;32542;52.832;13.816;2023-09-07T12:22:11;102358.19;;;24.91;43.93
17254;BME280;32542;52.832;13.816;2023-09-07T12:25:14;102363.56;;;24.91;44.17
17254;BME280;32542;52.832;13.816;2023-09-07T12:28:20;102357.25;;;24.92;44.28
17254;BME280;32542;52.832;13.816;2023-09-07T12:31:23;102350.97;;;24.93;44.08
17254;BME280;32542;52.832;13.816;2023-09-07T12:34:26;102358.06;;;24.94;44.13
17254;BME280;32542;52.832;13.816;2023-09-07T12:37:33;102356.25;;;24.95;43.86
17254;BME280;32542;52.832;13.816;2023-09-07T12:40:36;102357.03;;;24.98;43.93
17254;BME280;32542;52.832;13.816;2023-09-07T12:43:39;102342.66;;;24.99;43.99
17254;BME280;32542;52.832;13.816;2023-09-07T12:46:42;102356.94;;;25.00;43.89
17254;BME280;32542;52.832;13.816;2023-09-07T12:49:44;102355.16;;;25.00;43.73
17254;BME280;32542;52.832;13.816;2023-09-07T12:52:49;102341.75;;;25.00;43.90
17254;BME280;32542;52.832;13.816;2023-09-07T12:55:52;102339.00;;;25.02;43.92
17254;BME280;32542;52.832;13.816;2023-09-07T12:58:55;102338.00;;;25.04;44.06
17254;BME280;32542;52.832;13.816;2023-09-07T13:02:00;102338.00;;;25.04;43.96
17254;BME280;32542;52.832;13.816;2023-09-07T13:05:04;102328.09;;;25.06;43.92
17254;BME280;32542;52.832;13.816;2023-09-07T13:08:10;102328.94;;;25.07;44.03
17254;BME280;32542;52.832;13.816;2023-09-07T13:11:13;102328.91;;;25.08;43.82
17254;BME280;32542;52.832;13.816;2023-09-07T13:14:16;102330.63;;;25.09;43.80
17254;BME280;32542;52.832;13.816;2023-09-07T13:17:19;102323.47;;;25.10;43.95
17254;BME280;32542;52.832;13.816;2023-09-07T13:20:21;102323.38;;;25.11;44.14
17254;BME280;32542;52.832;13.816;2023-09-07T13:23:26;102321.50;;;25.13;44.12
17254;BME280;32542;52.832;13.816;2023-09-07T13:26:29;102321.50;;;25.13;44.08
17254;BME280;32542;52.832;13.816;2023-09-07T13:29:32;102317.91;;;25.14;44.32
17254;BME280;32542;52.832;13.816;2023-09-07T13:32:35;102314.28;;;25.15;44.29
17254;BME280;32542;52.832;13.816;2023-09-07T13:35:38;102311.56;;;25.17;44.25
17254;BME280;32542;52.832;13.816;2023-09-07T13:38:43;102308.81;;;25.18;44.34
17254;BME280;32542;52.832;13.816;2023-09-07T13:41:46;102299.84;;;25.19;44.16
17254;BME280;32542;52.832;13.816;2023-09-07T13:44:48;102296.19;;;25.20;44.06
17254;BME280;32542;52.832;13.816;2023-09-07T13:47:52;102295.28;;;25.21;44.13
17254;BME280;32542;52.832;13.816;2023-09-07T13:50:55;102296.13;;;25.22;44.18
17254;BME280;32542;52.832;13.816;2023-09-07T13:53:59;102303.31;;;25.21;44.13
17254;BME280;32542;52.832;13.816;2023-09-07T13:57:03;102295.22;;;25.23;44.24
17254;BME280;32542;52.832;13.816;2023-09-07T14:00:10;102294.25;;;25.24;44.14
17254;BME280;32542;52.832;13.816;2023-09-07T14:03:13;102288.84;;;25.25;44.23
17254;BME280;32542;52.832;13.816;2023-09-07T14:06:16;102289.78;;;25.24;44.35
17254;BME280;32542;52.832;13.816;2023-09-07T14:09:23;102281.72;;;25.24;44.26
17254;BME280;32542;52.832;13.816;2023-09-07T14:12:26;102284.34;;;25.26;44.53
17254;BME280;32542;52.832;13.816;2023-09-07T14:15:29;102284.34;;;25.26;44.32
17254;BME280;32542;52.832;13.816;2023-09-07T14:18:32;102280.81;;;25.25;44.11
17254;BME280;32542;52.832;13.816;2023-09-07T14:21:36;102282.53;;;25.26;43.76
17254;BME280;32542;52.832;13.816;2023-09-07T14:24:40;102278.94;;;25.27;43.96
17254;BME280;32542;52.832;13.816;2023-09-07T14:27:43;102278.84;;;25.29;44.26
17254;BME280;32542;52.832;13.816;2023-09-07T14:30:47;102281.47;;;25.30;44.35
17254;BME280;32542;52.832;13.816;2023-09-07T14:33:50;102280.53;;;25.31;44.15
17254;BME280;32542;52.832;13.816;2023-09-07T14:36:53;102284.94;;;25.32;44.14
17254;BME280;32542;52.832;13.816;2023-09-07T14:39:57;102286.72;;;25.33;44.05
17254;BME280;32542;52.832;13.816;2023-09-07T14:43:01;102275.09;;;25.33;44.18
17254;BME280;32542;52.832;13.816;2023-09-07T14:46:03;102283.13;;;25.33;43.76
17254;BME280;32542;52.832;13.816;2023-09-07T14:49:06;102278.66;;;25.33;43.93
17254;BME280;32542;52.832;13.816;2023-09-07T14:52:09;102282.22;;;25.34;43.90
17254;BME280;32542;52.832;13.816;2023-09-07T14:55:14;102276.78;;;25.35;44.05
17254;BME280;32542;52.832;13.816;2023-09-07T14:58:18;102280.34;;;25.36;43.79
17254;BME280;32542;52.832;13.816;2023-09-07T15:01:20;102275.81;;;25.36;43.68
17254;BME280;32542;52.832;13.816;2023-09-07T15:04:23;102271.31;;;25.38;43.42
17254;BME280;32542;52.832;13.816;2023-09-07T15:07:27;102263.25;;;25.38;43.18
17254;BME280;32542;52.832;13.816;2023-09-07T15:10:31;102265.06;;;25.38;43.38
17254;BME280;32542;52.832;13.816;2023-09-07T15:13:35;102273.97;;;25.38;43.49
17254;BME280;32542;52.832;13.816;2023-09-07T15:16:38;102264.06;;;25.40;43.78
17254;BME280;32542;52.832;13.816;2023-09-07T15:19:41;102268.50;;;25.41;43.44
17254;BME280;32542;52.832;13.816;2023-09-07T15:22:44;102268.50;;;25.41;43.12
17254;BME280;32542;52.832;13.816;2023-09-07T15:25:48;102266.63;;;25.43;43.21
17254;BME280;32542;52.832;13.816;2023-09-07T15:28:51;102256.78;;;25.44;43.06
17254;BME280;32542;52.832;13.816;2023-09-07T15:31:54;102261.25;;;25.43;43.09
17254;BME280;32542;52.832;13.816;2023-09-07T15:34:57;102252.28;;;25.44;43.27
17254;BME280;32542;52.832;13.816;2023-09-07T15:38:00;102250.53;;;25.43;43.25
17254;BME280;32542;52.832;13.816;2023-09-07T15:41:05;102251.31;;;25.45;43.45
17254;BME280;32542;52.832;13.816;2023-09-07T15:44:08;102243.22;;;25.47;43.52
17254;BME280;32542;52.832;13.816;2023-09-07T15:47:11;102241.41;;;25.47;43.59
17254;BME280;32542;52.832;13.816;2023-09-07T15:50:14;102241.41;;;25.47;43.22